Time;durP1;ratioP1;P1;durP2;ratioP2;P2;SDS_P1;SDS_P2;PMS_P1;PMS_P2;Temp;Humidity;BMP_temperature;BMP_pressure;BME280_temperature;BME280_humidity;BME280_pressure;Samples;Min_cycle;Max_cycle;Signal;HPM_P1;HPM_P2
2021/06/02 00:00:58;;;;;;;1.5;1;;;;;;;12.3;65.94238;936.1236;;;;
2021/06/02 00:03:23;;;;;;;1.6;1.1;;;;;;;12.25;66.08301;936.103;;;;
2021/06/02 00:05:48;;;;;;;0.8;0.8;;;;;;;12.15;66.48047;936.1258;;;;
2021/06/02 00:08:13;;;;;;;2.7;1;;;;;;;12.04;67.39258;936.1792;;;;
2021/06/02 00:10:39;;;;;;;2.9;1.1;;;;;;;12.05;66.83203;936.1058;;;;
2021/06/02 00:16:41;;;;;;;0.9;0.8;;;;;;;11.96;67.81445;936.1072;;;;
2021/06/02 00:19:06;;;;;;;9.2;1.3;;;;;;;11.99;67.45215;936.1088;;;;
2021/06/02 00:21:32;;;;;;;3;1.4;;;;;;;12.07;66.95996;936.0891;;;;
2021/06/02 00:23:57;;;;;;;1.6;1.1;;;;;;;12.08;66.88379;936.0405;;;;
2021/06/02 00:26:24;;;;;;;2.3;1;;;;;;;12.07;67.00684;936.0532;;;;
2021/06/02 00:28:49;;;;;;;1.7;1.1;;;;;;;12.02;67.11426;936.0723;;;;
2021/06/02 00:31:16;;;;;;;1.1;0.7;;;;;;;11.8;67.60742;936.0405;;;;
2021/06/02 00:33:41;;;;;;;1.7;0.9;;;;;;;11.87;67.58301;936.0967;;;;
2021/06/02 00:36:06;;;;;;;1.2;1.1;;;;;;;11.94;67.58301;936.0345;;;;
2021/06/02 00:38:31;;;;;;;1.5;0.8;;;;;;;11.9;67.38086;936.0577;;;;
2021/06/02 00:40:57;;;;;;;1;0.9;;;;;;;11.8;67.66309;935.9974;;;;
2021/06/02 00:43:23;;;;;;;4.5;1.1;;;;;;;11.78;67.74121;936.0508;;;;
2021/06/02 00:45:48;;;;;;;1.5;1.2;;;;;;;11.87;67.76758;936.0497;;;;
2021/06/02 00:48:14;;;;;;;2.8;1.3;;;;;;;11.82;67.83984;936.0903;;;;
2021/06/02 00:50:39;;;;;;;1.8;1.1;;;;;;;11.73;68.2373;936.0481;;;;
2021/06/02 00:53:05;;;;;;;2.8;0.8;;;;;;;11.66;68.51074;936.0927;;;;
2021/06/02 00:55:30;;;;;;;1.3;1;;;;;;;11.47;69.29492;936.1262;;;;
2021/06/02 00:57:57;;;;;;;2.3;1.2;;;;;;;11.4;69.5918;936.0565;;;;
2021/06/02 01:00:23;;;;;;;1;0.8;;;;;;;11.38;69.89648;936.0859;;;;
2021/06/02 01:02:48;;;;;;;1.2;0.9;;;;;;;11.3;69.87402;936.0483;;;;
2021/06/02 01:05:17;;;;;;;1.6;0.9;;;;;;;11.37;69.63379;936.0898;;;;
2021/06/02 01:07:40;;;;;;;1.9;1.2;;;;;;;11.37;69.61035;936.0906;;;;
2021/06/02 01:10:05;;;;;;;1.8;0.9;;;;;;;11.28;69.93945;936.0394;;;;
2021/06/02 01:12:30;;;;;;;2.6;1.2;;;;;;;11.31;70.44531;936.0555;;;;
2021/06/02 01:14:55;;;;;;;10.5;1.6;;;;;;;11.38;69.6123;936.0317;;;;
2021/06/02 01:17:23;;;;;;;1.5;1;;;;;;;10.96;70.7666;936.1238;;;;
2021/06/02 01:19:48;;;;;;;4.1;1.6;;;;;;;10.93;71.81543;936.1124;;;;
2021/06/02 01:22:14;;;;;;;3.1;1.4;;;;;;;11.06;71.37793;936.063;;;;
2021/06/02 01:24:41;;;;;;;2;1;;;;;;;11.07;71.08301;936.111;;;;
2021/06/02 01:27:06;;;;;;;2.2;1.2;;;;;;;11.09;71.04004;936.0703;;;;
2021/06/02 01:29:31;;;;;;;1;0.9;;;;;;;11.01;71.23145;936.0872;;;;
2021/06/02 01:31:58;;;;;;;1;0.7;;;;;;;10.91;71.73047;936.0884;;;;
2021/06/02 01:34:23;;;;;;;1.7;0.9;;;;;;;11.04;71.36328;936.0917;;;;
2021/06/02 01:36:48;;;;;;;2.7;0.8;;;;;;;11.03;71.27148;936.0996;;;;
2021/06/02 01:39:14;;;;;;;1.7;0.9;;;;;;;11.03;71.39551;936.1314;;;;
2021/06/02 01:41:39;;;;;;;2.8;1.2;;;;;;;11.05;71.16016;936.1922;;;;
2021/06/02 01:44:04;;;;;;;1.1;1;;;;;;;11.04;71.03125;936.0917;;;;
2021/06/02 01:46:29;;;;;;;1.6;1;;;;;;;10.98;71.12402;936.1094;;;;
2021/06/02 01:48:55;;;;;;;2.7;1.1;;;;;;;10.85;71.75293;936.132;;;;
2021/06/02 01:51:20;;;;;;;1.7;0.6;;;;;;;10.72;72.49707;936.1088;;;;
2021/06/02 01:53:47;;;;;;;1.2;0.7;;;;;;;10.74;72.45605;936.1774;;;;
2021/06/02 01:56:14;;;;;;;2.1;1;;;;;;;10.59;73.00195;936.1809;;;;
2021/06/02 01:58:39;;;;;;;1.2;1;;;;;;;10.54;73.23242;936.051;;;;
2021/06/02 02:01:25;;;;;;;1.7;1.2;;;;;;;10.4;73.91699;936.0594;;;;
2021/06/02 02:03:53;;;;;;;1.2;1.1;;;;;;;10.35;74.14844;936.1378;;;;
2021/06/02 02:06:18;;;;;;;1.5;1.1;;;;;;;10.53;73.60742;936.1552;;;;
2021/06/02 02:09:25;;;;;;;7;1.3;;;;;;;10.65;73.29883;936.1458;;;;
2021/06/02 02:11:50;;;;;;;2.1;1.1;;;;;;;10.73;72.30762;936.1263;;;;
2021/06/02 02:14:15;;;;;;;1.6;0.9;;;;;;;10.52;73.10352;936.1272;;;;
2021/06/02 02:16:41;;;;;;;1.1;1;;;;;;;10.48;73.28027;936.0959;;;;
2021/06/02 02:19:06;;;;;;;5.1;1.7;;;;;;;10.59;72.92188;936.1635;;;;
2021/06/02 02:21:31;;;;;;;1.9;1.1;;;;;;;10.64;72.59961;936.1291;;;;
2021/06/02 02:23:56;;;;;;;1.3;1;;;;;;;10.65;72.75;936.1116;;;;
2021/06/02 02:26:21;;;;;;;4.8;1.3;;;;;;;10.61;73.22168;936.1445;;;;
2021/06/02 02:28:46;;;;;;;1.8;0.9;;;;;;;10.44;73.67188;936.1618;;;;
2021/06/02 02:31:11;;;;;;;1.4;1.3;;;;;;;10.25;74.55371;936.2486;;;;
2021/06/02 02:33:37;;;;;;;1.3;1.1;;;;;;;10.24;74.64355;936.2302;;;;
2021/06/02 02:36:02;;;;;;;1.7;1;;;;;;;10.23;74.70898;936.25;;;;
2021/06/02 02:38:27;;;;;;;4.5;1.6;;;;;;;10.35;74.30859;936.2381;;;;
2021/06/02 02:40:54;;;;;;;4.1;1.4;;;;;;;10.44;73.87891;936.2206;;;;
2021/06/02 02:43:19;;;;;;;1.4;1.3;;;;;;;10.41;73.95313;936.2787;;;;
2021/06/02 02:45:45;;;;;;;2.9;1.3;;;;;;;10.26;74.62402;936.274;;;;
2021/06/02 02:48:10;;;;;;;1.9;1.2;;;;;;;10.21;74.96875;936.3398;;;;
2021/06/02 02:50:37;;;;;;;2.3;1.4;;;;;;;10.36;74.37891;936.3393;;;;
2021/06/02 02:53:03;;;;;;;1.2;1;;;;;;;10.3;74.5752;936.3906;;;;
2021/06/02 02:55:27;;;;;;;1.2;1.1;;;;;;;10.17;75.00781;936.4089;;;;
2021/06/02 02:57:53;;;;;;;1.8;1.2;;;;;;;10.24;74.92871;936.4529;;;;
2021/06/02 03:00:18;;;;;;;1.2;1;;;;;;;10.31;74.84863;936.4439;;;;
2021/06/02 03:02:43;;;;;;;1.4;1.2;;;;;;;10.31;74.62012;936.4177;;;;
2021/06/02 03:05:08;;;;;;;2.5;1.1;;;;;;;10.24;74.91797;936.4553;;;;
2021/06/02 03:07:33;;;;;;;3.5;1.1;;;;;;;10.06;75.58008;936.5019;;;;
2021/06/02 03:10:01;;;;;;;2.1;1.1;;;;;;;9.96;75.97461;936.492;;;;
2021/06/02 03:12:26;;;;;;;3.3;1.2;;;;;;;9.91;76.21777;936.5314;;;;
2021/06/02 03:14:51;;;;;;;1.6;1.2;;;;;;;10.02;75.71289;936.5771;;;;
2021/06/02 03:17:17;;;;;;;1.3;1.1;;;;;;;10.11;75.5332;936.6312;;;;
2021/06/02 03:19:43;;;;;;;2.2;1.2;;;;;;;10.19;75.04492;936.5491;;;;
2021/06/02 03:22:08;;;;;;;1.4;1.2;;;;;;;10.14;75.00293;936.6243;;;;
2021/06/02 03:24:33;;;;;;;1;0.9;;;;;;;10.26;74.67969;936.613;;;;
2021/06/02 03:26:58;;;;;;;1;0.9;;;;;;;10.23;74.73145;936.6096;;;;
2021/06/02 03:29:23;;;;;;;2.1;1.2;;;;;;;10.33;74.43066;936.6272;;;;
2021/06/02 03:31:48;;;;;;;1.2;1.1;;;;;;;10.37;74.15234;936.6155;;;;
2021/06/02 03:34:13;;;;;;;3;1;;;;;;;10.27;74.60254;936.6887;;;;
2021/06/02 03:36:39;;;;;;;1.9;1.3;;;;;;;10;75.66211;936.6617;;;;
2021/06/02 03:39:05;;;;;;;1.3;1.1;;;;;;;9.85;76.61523;936.6301;;;;
2021/06/02 03:41:30;;;;;;;1.9;1.1;;;;;;;9.89;76.6123;936.6433;;;;
2021/06/02 03:43:55;;;;;;;3.3;1.8;;;;;;;9.76;77.25098;936.6711;;;;
2021/06/02 03:47:01;;;;;;;1.5;1.3;;;;;;;9.77;77.45605;936.6967;;;;
2021/06/02 03:49:26;;;;;;;1.4;1.3;;;;;;;9.99;76.73242;936.6633;;;;
2021/06/02 03:51:53;;;;;;;1.1;1;;;;;;;10.13;76.05078;936.7436;;;;
2021/06/02 03:54:35;;;;;;;3;1.5;;;;;;;10.12;76.00195;936.7203;;;;
2021/06/02 03:57:12;;;;;;;1.7;1.2;;;;;;;10.13;75.60645;936.707;;;;
2021/06/02 03:59:37;;;;;;;1.2;1.1;;;;;;;10.23;75.34766;936.7067;;;;
2021/06/02 04:02:36;;;;;;;2.7;1.1;;;;;;;10.33;75.36523;936.7497;;;;
2021/06/02 04:05:01;;;;;;;1.4;1.2;;;;;;;10.44;75.38574;936.707;;;;
2021/06/02 04:07:26;;;;;;;1.2;1.1;;;;;;;10.58;74.58691;936.7668;;;;
2021/06/02 04:12:31;;;;;;;3.1;1.5;;;;;;;10.53;74.95605;936.7952;;;;
2021/06/02 04:14:56;;;;;;;3.3;1.1;;;;;;;10.59;74.28223;936.8569;;;;
2021/06/02 04:17:25;;;;;;;2.2;1.6;;;;;;;10.48;74.60449;936.8594;;;;
2021/06/02 04:19:50;;;;;;;4.3;1.6;;;;;;;10.48;74.35352;936.8801;;;;
2021/06/02 04:22:15;;;;;;;2.5;1.5;;;;;;;10.43;74.60645;936.9003;;;;
2021/06/02 04:24:40;;;;;;;1.4;1.3;;;;;;;10.53;74.62402;936.9163;;;;
2021/06/02 04:27:07;;;;;;;10.8;1.5;;;;;;;10.57;74.49414;936.9364;;;;
2021/06/02 04:29:32;;;;;;;2.1;1.5;;;;;;;10.72;74.53027;937.0276;;;;
2021/06/02 04:31:57;;;;;;;2;1.3;;;;;;;10.82;74.09277;936.9785;;;;
2021/06/02 04:34:22;;;;;;;2.5;1.3;;;;;;;10.84;74.07227;936.9634;;;;
2021/06/02 04:36:48;;;;;;;3.9;2.1;;;;;;;10.98;73.29688;937.0695;;;;
2021/06/02 04:39:14;;;;;;;3.7;1.3;;;;;;;10.96;73.2832;937.0208;;;;
2021/06/02 04:41:40;;;;;;;2.8;1.5;;;;;;;10.87;73.68848;937.0131;;;;
2021/06/02 04:44:06;;;;;;;1.3;1;;;;;;;10.98;73.58301;936.9523;;;;
2021/06/02 04:46:31;;;;;;;1.9;1.2;;;;;;;11.06;74.36133;937.0295;;;;
2021/06/02 04:48:57;;;;;;;1.7;1.5;;;;;;;11.24;73.78711;937.0858;;;;
2021/06/02 04:51:22;;;;;;;2.3;1.4;;;;;;;11.37;72.92676;937.0234;;;;
2021/06/02 04:54:26;;;;;;;2.9;1.6;;;;;;;11.67;72.31445;937.0354;;;;
2021/06/02 04:56:51;;;;;;;2.9;1.7;;;;;;;11.77;72.06738;937.0094;;;;
2021/06/02 04:59:16;;;;;;;2.3;1.5;;;;;;;11.8;71.5127;937.0528;;;;
2021/06/02 05:01:41;;;;;;;2.3;1.8;;;;;;;11.63;71.07031;937.0911;;;;
2021/06/02 05:04:06;;;;;;;2.7;1.7;;;;;;;11.71;71.33594;937.0898;;;;
2021/06/02 05:06:31;;;;;;;2.8;1.7;;;;;;;11.9;70.55566;937.1037;;;;
2021/06/02 05:08:58;;;;;;;4.2;1.9;;;;;;;13;67.98828;937.0926;;;;
2021/06/02 05:11:23;;;;;;;1.8;1.4;;;;;;;14.28;62.0625;937.095;;;;
2021/06/02 05:13:48;;;;;;;1.6;1.4;;;;;;;15.51;58.90039;937.0747;;;;
2021/06/02 05:16:19;;;;;;;3.9;1.3;;;;;;;15.92;57.14063;937.0368;;;;
2021/06/02 05:18:45;;;;;;;3.8;1.7;;;;;;;15.45;59.84961;937.0922;;;;
2021/06/02 05:23:43;;;;;;;2.6;1.4;;;;;;;14.94;60.58789;937.1936;;;;
2021/06/02 05:26:17;;;;;;;1.7;1.2;;;;;;;15.66;58.2832;937.1273;;;;
2021/06/02 05:28:42;;;;;;;4.5;0.9;;;;;;;15.78;57.53711;937.1731;;;;
2021/06/02 05:31:07;;;;;;;1.1;0.9;;;;;;;15.58;58.2959;937.1044;;;;
2021/06/02 05:33:39;;;;;;;3.2;1.6;;;;;;;14.96;60.10547;937.2143;;;;
2021/06/02 05:36:04;;;;;;;1.3;1.1;;;;;;;14.78;62.3418;937.1979;;;;
2021/06/02 05:38:29;;;;;;;2.3;1.1;;;;;;;14.56;62.68945;937.1545;;;;
2021/06/02 05:40:56;;;;;;;2.5;1.5;;;;;;;14.77;62.4541;937.1876;;;;
2021/06/02 05:43:21;;;;;;;15.6;1.9;;;;;;;14.83;60.84961;937.205;;;;
2021/06/02 05:45:47;;;;;;;1.8;1.2;;;;;;;14.68;61.32324;937.1731;;;;
2021/06/02 05:48:12;;;;;;;14.8;2.2;;;;;;;14.64;62.35449;937.1951;;;;
2021/06/02 05:50:44;;;;;;;4.5;1.5;;;;;;;14.59;62.61426;937.1558;;;;
2021/06/02 05:53:10;;;;;;;2;1.4;;;;;;;15.46;61.20117;937.1724;;;;
2021/06/02 05:55:35;;;;;;;1.8;1.2;;;;;;;16.87;56.89355;937.0767;;;;
2021/06/02 05:58:00;;;;;;;3.1;1.5;;;;;;;17.99;53.48438;937.0977;;;;
2021/06/02 06:00:26;;;;;;;2.8;1.2;;;;;;;19.82;47.92188;937.014;;;;
2021/06/02 06:02:52;;;;;;;2.6;1.1;;;;;;;21.36;43.46582;936.9579;;;;
2021/06/02 06:05:17;;;;;;;0.6;0.6;;;;;;;21.53;42.57031;937.0259;;;;
2021/06/02 06:07:43;;;;;;;2.5;1.7;;;;;;;22.52;40.31836;937.0139;;;;
2021/06/02 06:10:10;;;;;;;1.2;0.6;;;;;;;24.31;37.04004;936.9752;;;;
2021/06/02 06:12:35;;;;;;;3.1;1.1;;;;;;;25.44;34.94824;937.0178;;;;
2021/06/02 06:15:02;;;;;;;1.7;1;;;;;;;26.85;32.58203;937.0457;;;;
2021/06/02 06:17:29;;;;;;;2.9;1;;;;;;;27.73;31.32813;936.9861;;;;
2021/06/02 06:19:54;;;;;;;1.5;0.8;;;;;;;28.81;30.36914;936.9666;;;;
2021/06/02 06:22:22;;;;;;;2;0.8;;;;;;;30.08;27.07813;936.9744;;;;
2021/06/02 06:24:48;;;;;;;0.8;0.6;;;;;;;29.95;28.04785;937.0084;;;;
2021/06/02 06:27:12;;;;;;;4.1;0.8;;;;;;;31.53;26.07422;936.9833;;;;
2021/06/02 06:29:37;;;;;;;7.8;1.1;;;;;;;31.67;25.75977;936.9724;;;;
2021/06/02 06:32:02;;;;;;;1;0.6;;;;;;;31.37;26.07715;936.9694;;;;
2021/06/02 06:34:30;;;;;;;0.8;0.4;;;;;;;31.75;25.94336;936.9593;;;;
2021/06/02 06:36:55;;;;;;;1.3;0.6;;;;;;;31.36;27.05762;936.9908;;;;
2021/06/02 06:39:20;;;;;;;0.9;0.6;;;;;;;31.87;26.3457;936.9744;;;;
2021/06/02 06:41:46;;;;;;;1.3;0.6;;;;;;;32.41;24.67383;936.9302;;;;
2021/06/02 06:44:11;;;;;;;0.7;0.6;;;;;;;32.6;25.10449;936.9581;;;;
2021/06/02 06:46:40;;;;;;;1.7;0.5;;;;;;;33.18;23.7666;936.9481;;;;
2021/06/02 06:49:05;;;;;;;0.4;0.3;;;;;;;34;23.51953;936.8953;;;;
2021/06/02 06:51:30;;;;;;;0.7;0.6;;;;;;;34.64;22.16699;936.9622;;;;
2021/06/02 06:53:56;;;;;;;0.6;0.5;;;;;;;35.34;21.71777;936.9595;;;;
2021/06/02 06:56:22;;;;;;;0.3;0.3;;;;;;;34.89;20.78027;936.954;;;;
2021/06/02 06:58:47;;;;;;;2.7;0.9;;;;;;;35.36;21.70703;936.9807;;;;
2021/06/02 07:01:14;;;;;;;9.7;3;;;;;;;35.3;21.20898;936.9897;;;;
2021/06/02 07:03:39;;;;;;;2.2;0.6;;;;;;;35.26;21.25586;936.9337;;;;
2021/06/02 07:06:06;;;;;;;12.8;1.4;;;;;;;35.18;23.1582;936.9506;;;;
2021/06/02 07:08:31;;;;;;;20.5;2.9;;;;;;;36.86;21.35449;936.9052;;;;
2021/06/02 07:10:59;;;;;;;1.7;0.7;;;;;;;37.19;20.60645;936.8861;;;;
2021/06/02 07:13:24;;;;;;;13.4;1.2;;;;;;;37.51;19.70996;936.8477;;;;
2021/06/02 07:15:53;;;;;;;1.3;0.7;;;;;;;36.89;18.375;936.9403;;;;
2021/06/02 07:18:18;;;;;;;1.4;0.6;;;;;;;37.82;17.95215;936.9101;;;;
2021/06/02 07:20:45;;;;;;;1.7;0.6;;;;;;;39.01;17.34082;936.8929;;;;
2021/06/02 07:23:11;;;;;;;1;0.4;;;;;;;39.45;17.19922;936.949;;;;
2021/06/02 07:25:38;;;;;;;0.8;0.4;;;;;;;38.94;17.56934;936.9283;;;;
2021/06/02 07:28:03;;;;;;;0.6;0.3;;;;;;;39.29;16.07324;936.9094;;;;
2021/06/02 07:30:28;;;;;;;0.7;0.4;;;;;;;39.68;16.73242;936.8945;;;;
2021/06/02 07:32:54;;;;;;;0.3;0.2;;;;;;;37.93;18.1377;936.8708;;;;
2021/06/02 07:35:19;;;;;;;1;0.4;;;;;;;37.78;17.4043;936.8892;;;;
2021/06/02 07:37:49;;;;;;;6.9;0.6;;;;;;;38.82;17.84473;936.8885;;;;
2021/06/02 07:40:14;;;;;;;0.4;0.3;;;;;;;37.88;18.14844;936.9109;;;;
2021/06/02 07:42:39;;;;;;;1.3;0.6;;;;;;;38.66;17.52246;936.9221;;;;
2021/06/02 07:45:04;;;;;;;1.2;0.7;;;;;;;39.57;17.81348;936.9191;;;;
2021/06/02 07:47:29;;;;;;;1.1;0.5;;;;;;;38.55;19.42676;936.8881;;;;
2021/06/02 07:49:54;;;;;;;2;0.3;;;;;;;38.63;18.43262;936.9161;;;;
2021/06/02 07:52:21;;;;;;;0.3;0.3;;;;;;;38.07;18.47168;936.8906;;;;
2021/06/02 07:54:46;;;;;;;0.4;0.3;;;;;;;37.49;18.44824;936.8038;;;;
2021/06/02 07:57:12;;;;;;;0.4;0.3;;;;;;;38.78;16.51758;936.8562;;;;
2021/06/02 07:59:37;;;;;;;0.6;0.4;;;;;;;39.47;16.15234;936.8973;;;;
2021/06/02 08:02:03;;;;;;;4.2;0.7;;;;;;;40.23;16.44727;936.8289;;;;
2021/06/02 08:04:28;;;;;;;0.5;0.2;;;;;;;38.79;18.25684;936.8367;;;;
2021/06/02 08:06:55;;;;;;;2.1;0.6;;;;;;;39.73;17.03906;936.8806;;;;
2021/06/02 08:09:20;;;;;;;0.4;0.3;;;;;;;39.96;17.32813;936.8804;;;;
2021/06/02 08:11:47;;;;;;;0.5;0.4;;;;;;;41.86;15.25684;936.8475;;;;
2021/06/02 08:14:40;;;;;;;0.6;0.5;;;;;;;41.3;16.3877;936.8056;;;;
2021/06/02 08:17:08;;;;;;;1;0.3;;;;;;;39.75;17.90527;936.8395;;;;
2021/06/02 08:19:34;;;;;;;0.2;0.2;;;;;;;38.52;17.82129;936.7631;;;;
2021/06/02 08:22:00;;;;;;;3.2;1.2;;;;;;;40.06;16.85645;936.8267;;;;
2021/06/02 08:24:25;;;;;;;0.8;0.5;;;;;;;40.63;16.75488;936.7685;;;;
2021/06/02 08:26:53;;;;;;;0.2;0.2;;;;;;;41.93;15.30762;936.818;;;;
2021/06/02 08:29:18;;;;;;;0.4;0.3;;;;;;;42.33;14.87988;936.8351;;;;
2021/06/02 08:31:44;;;;;;;0.7;0.5;;;;;;;41.7;15.26367;936.7586;;;;
2021/06/02 08:34:10;;;;;;;0.4;0.3;;;;;;;39.01;17.37793;936.8069;;;;
2021/06/02 08:36:36;;;;;;;0.3;0.2;;;;;;;39.66;18.13379;936.7766;;;;
2021/06/02 08:39:01;;;;;;;0.4;0.4;;;;;;;39.28;18.19141;936.7715;;;;
2021/06/02 08:41:26;;;;;;;6.8;0.3;;;;;;;40.52;17.11719;936.7609;;;;
2021/06/02 08:43:53;;;;;;;0.6;0.4;;;;;;;40.97;16.46094;936.7338;;;;
2021/06/02 08:46:18;;;;;;;1.3;0.5;;;;;;;41.03;15.47363;936.7853;;;;
2021/06/02 08:48:45;;;;;;;0.6;0.5;;;;;;;39.66;16.95117;936.8061;;;;
2021/06/02 08:51:10;;;;;;;2;0.7;;;;;;;37.8;18.5459;936.7413;;;;
2021/06/02 08:53:37;;;;;;;1.3;0.3;;;;;;;38.9;16.89941;936.7743;;;;
2021/06/02 08:56:02;;;;;;;0.4;0.3;;;;;;;38.19;20.50488;936.7238;;;;
2021/06/02 08:58:29;;;;;;;2.4;0.8;;;;;;;38.53;18.40527;936.7581;;;;
2021/06/02 09:00:54;;;;;;;0.9;0.5;;;;;;;38.53;18.63574;936.747;;;;
2021/06/02 09:03:35;;;;;;;1.2;0.4;;;;;;;37.2;19.50293;936.698;;;;
2021/06/02 09:06:06;;;;;;;1.5;0.5;;;;;;;37.07;19.19434;936.7645;;;;
2021/06/02 09:08:27;;;;;;;4;0.4;;;;;;;37.43;19.20996;936.7619;;;;
2021/06/02 09:10:55;;;;;;;0.2;0.2;;;;;;;38.43;18.40039;936.8078;;;;
2021/06/02 09:13:19;;;;;;;0.4;0.4;;;;;;;37.48;19.12695;936.8127;;;;
2021/06/02 09:15:45;;;;;;;0.3;0.3;;;;;;;38.35;18.70215;936.8039;;;;
2021/06/02 09:18:11;;;;;;;0.3;0.3;;;;;;;38.53;17.49316;936.8447;;;;
2021/06/02 09:20:36;;;;;;;0.8;0.4;;;;;;;37.53;19.37207;936.8641;;;;
2021/06/02 09:23:04;;;;;;;1.4;0.6;;;;;;;37.11;19.65723;936.8077;;;;
2021/06/02 09:25:29;;;;;;;0.3;0.3;;;;;;;37.49;19.18848;936.8431;;;;
2021/06/02 09:27:56;;;;;;;0.3;0.2;;;;;;;37.59;18.98633;936.8292;;;;
2021/06/02 09:30:24;;;;;;;0.2;0.2;;;;;;;37.58;18.53711;936.8236;;;;
2021/06/02 09:32:49;;;;;;;0.3;0.3;;;;;;;36.04;20.3125;936.8007;;;;
2021/06/02 09:35:14;;;;;;;1;0.3;;;;;;;35.06;21.75293;936.8088;;;;
2021/06/02 09:37:40;;;;;;;1;0.4;;;;;;;35.23;21.32715;936.8049;;;;
2021/06/02 09:40:05;;;;;;;0.6;0.3;;;;;;;35.46;21.63867;936.7878;;;;
2021/06/02 09:42:31;;;;;;;0.3;0.3;;;;;;;35.59;20.86035;936.8044;;;;
2021/06/02 09:44:56;;;;;;;0.8;0.4;;;;;;;35.92;21.51563;936.7756;;;;
2021/06/02 09:47:21;;;;;;;0.5;0.3;;;;;;;36.06;20.54297;936.7266;;;;
2021/06/02 09:49:46;;;;;;;0.9;0.6;;;;;;;35.79;21.31738;936.759;;;;
2021/06/02 09:52:11;;;;;;;0.3;0.2;;;;;;;35.12;21.24902;936.7476;;;;
2021/06/02 09:54:36;;;;;;;0.3;0.3;;;;;;;34.26;21.73926;936.8039;;;;
2021/06/02 09:57:01;;;;;;;1.4;0.7;;;;;;;32.75;24.22363;936.7673;;;;
2021/06/02 09:59:27;;;;;;;0.6;0.4;;;;;;;32.1;25.92773;936.7542;;;;
2021/06/02 10:01:52;;;;;;;0.4;0.2;;;;;;;32.58;25.34277;936.7952;;;;
2021/06/02 10:04:17;;;;;;;0.5;0.4;;;;;;;32.37;23.83203;936.7784;;;;
2021/06/02 10:06:42;;;;;;;0.4;0.3;;;;;;;31.89;24.1543;936.788;;;;
2021/06/02 10:09:07;;;;;;;0.4;0.3;;;;;;;30.72;27.4375;936.7709;;;;
2021/06/02 10:11:35;;;;;;;1.9;0.6;;;;;;;30.07;28.86719;936.8006;;;;
2021/06/02 10:14:01;;;;;;;0.4;0.4;;;;;;;29.92;27.19922;936.7954;;;;
2021/06/02 10:16:26;;;;;;;1;0.5;;;;;;;29.79;27.64453;936.7391;;;;
2021/06/02 10:18:51;;;;;;;0.4;0.3;;;;;;;29.63;27.74121;936.7261;;;;
2021/06/02 10:21:17;;;;;;;0.3;0.3;;;;;;;29.53;28.53418;936.7595;;;;
2021/06/02 10:23:43;;;;;;;1.2;0.6;;;;;;;29.25;28.88574;936.7119;;;;
2021/06/02 10:26:08;;;;;;;0.6;0.5;;;;;;;28.87;29.21777;936.7675;;;;
2021/06/02 10:28:34;;;;;;;0.4;0.4;;;;;;;28.7;30.62305;936.7377;;;;
2021/06/02 10:30:59;;;;;;;0.6;0.4;;;;;;;28.61;30.36719;936.7585;;;;
2021/06/02 10:33:26;;;;;;;0.6;0.5;;;;;;;28.76;28.30762;936.7597;;;;
2021/06/02 10:36:02;;;;;;;0.9;0.5;;;;;;;28.66;31.04883;936.7327;;;;
2021/06/02 10:38:52;;;;;;;0.8;0.5;;;;;;;28.42;33.32617;936.6776;;;;
2021/06/02 10:41:17;;;;;;;2.4;0.7;;;;;;;28.24;31.09082;936.7683;;;;
2021/06/02 10:43:42;;;;;;;0.3;0.3;;;;;;;27.6;31.69922;936.7776;;;;
2021/06/02 10:46:07;;;;;;;0.7;0.4;;;;;;;27.83;31.98828;936.7863;;;;
2021/06/02 10:48:32;;;;;;;1.5;0.5;;;;;;;28;30.06445;936.8262;;;;
2021/06/02 10:50:57;;;;;;;0.4;0.4;;;;;;;27.5;32.9502;936.8229;;;;
2021/06/02 10:53:23;;;;;;;0.4;0.4;;;;;;;27.22;33.87891;936.8222;;;;
2021/06/02 10:55:50;;;;;;;0.4;0.2;;;;;;;27.17;32.11914;936.8293;;;;
2021/06/02 10:58:15;;;;;;;0.9;0.4;;;;;;;27.4;32.00488;936.8802;;;;
2021/06/02 11:00:39;;;;;;;0.7;0.4;;;;;;;27.44;33.43262;936.8461;;;;
2021/06/02 11:03:05;;;;;;;0.2;0.2;;;;;;;27.1;33.43066;936.8357;;;;
2021/06/02 11:05:30;;;;;;;0.8;0.4;;;;;;;27.11;34.49902;936.7917;;;;
2021/06/02 11:07:55;;;;;;;0.6;0.5;;;;;;;26.73;34.81348;936.7737;;;;
2021/06/02 11:10:21;;;;;;;0.6;0.4;;;;;;;26.23;35.81543;936.8582;;;;
2021/06/02 11:12:48;;;;;;;0.9;0.4;;;;;;;26.11;36.87012;936.8994;;;;
2021/06/02 11:15:17;;;;;;;0.4;0.3;;;;;;;26.56;34.30273;936.832;;;;
2021/06/02 11:17:42;;;;;;;0.4;0.3;;;;;;;26.74;32.23145;936.8477;;;;
2021/06/02 11:20:11;;;;;;;0.4;0.4;;;;;;;26.65;32.1543;936.7963;;;;
2021/06/02 11:22:36;;;;;;;1.2;0.7;;;;;;;26.35;34.67676;936.75;;;;
2021/06/02 11:25:01;;;;;;;0.8;0.4;;;;;;;26.17;34.6748;936.8122;;;;
2021/06/02 11:27:26;;;;;;;0.4;0.4;;;;;;;26.16;33.91602;936.8495;;;;
2021/06/02 11:29:54;;;;;;;0.3;0.3;;;;;;;26.48;33.73926;936.8477;;;;
2021/06/02 11:32:18;;;;;;;4.3;0.6;;;;;;;26.87;32.96289;936.7846;;;;
2021/06/02 11:34:43;;;;;;;0.4;0.4;;;;;;;26.65;33.53906;936.8798;;;;
2021/06/02 11:37:09;;;;;;;0.5;0.4;;;;;;;26.44;33.6416;936.8625;;;;
2021/06/02 11:39:34;;;;;;;0.8;0.5;;;;;;;26.28;34.57715;936.9315;;;;
2021/06/02 11:41:59;;;;;;;0.4;0.4;;;;;;;26.27;35.22656;936.8131;;;;
2021/06/02 11:44:24;;;;;;;0.5;0.4;;;;;;;26.23;36.13477;936.8458;;;;
2021/06/02 11:46:49;;;;;;;0.5;0.2;;;;;;;26.55;34.9873;936.8083;;;;
2021/06/02 11:49:15;;;;;;;2.3;0.5;;;;;;;26.82;35.67285;936.7679;;;;
2021/06/02 11:51:41;;;;;;;0.5;0.4;;;;;;;26.73;34.83691;936.8211;;;;
2021/06/02 11:54:06;;;;;;;0.8;0.6;;;;;;;26.71;35.8418;936.8027;;;;
2021/06/02 11:56:32;;;;;;;0.3;0.3;;;;;;;27.02;33.31836;936.795;;;;
2021/06/02 11:58:57;;;;;;;1.1;0.5;;;;;;;27.27;32.83789;936.7983;;;;
2021/06/02 12:01:30;;;;;;;0.9;0.6;;;;;;;27.12;34.13086;936.7472;;;;
2021/06/02 12:03:56;;;;;;;1.1;0.4;;;;;;;26.67;36.21777;936.8491;;;;
2021/06/02 12:06:21;;;;;;;1.4;0.5;;;;;;;26.29;32.60156;936.7644;;;;
2021/06/02 12:08:46;;;;;;;0.7;0.6;;;;;;;26.47;37.19629;936.837;;;;
2021/06/02 12:11:11;;;;;;;0.9;0.4;;;;;;;26.46;35.44336;936.8128;;;;
2021/06/02 12:13:40;;;;;;;0.5;0.4;;;;;;;26.84;33.60059;936.741;;;;
2021/06/02 12:16:04;;;;;;;0.4;0.4;;;;;;;26.87;34.05371;936.8333;;;;
2021/06/02 12:18:31;;;;;;;2.1;0.7;;;;;;;26.85;35.03516;936.7943;;;;
2021/06/02 12:20:56;;;;;;;1.2;0.3;;;;;;;27.15;32.32031;936.7086;;;;
2021/06/02 12:23:23;;;;;;;0.6;0.5;;;;;;;27.12;33.44434;936.7829;;;;
2021/06/02 12:25:53;;;;;;;0.5;0.4;;;;;;;27.1;34.14258;936.8273;;;;
2021/06/02 12:28:19;;;;;;;0.5;0.4;;;;;;;27.49;33.27051;936.818;;;;
2021/06/02 12:30:44;;;;;;;0.6;0.4;;;;;;;27.36;30.25879;936.8483;;;;
2021/06/02 12:33:10;;;;;;;14.5;0.7;;;;;;;26.91;32.50391;936.7879;;;;
2021/06/02 12:35:35;;;;;;;1;0.6;;;;;;;27.3;30.9541;936.7805;;;;
2021/06/02 12:38:01;;;;;;;0.3;0.3;;;;;;;26.92;33.59473;936.8347;;;;
2021/06/02 12:40:25;;;;;;;0.4;0.4;;;;;;;26.45;34.24707;936.811;;;;
2021/06/02 12:42:50;;;;;;;0.7;0.4;;;;;;;26.43;33.81836;936.8269;;;;
2021/06/02 12:45:18;;;;;;;0.3;0.3;;;;;;;26.45;35.39453;936.829;;;;
2021/06/02 12:47:46;;;;;;;1;0.9;;;;;;;26.57;35.87695;936.8726;;;;
2021/06/02 12:50:14;;;;;;;0.8;0.5;;;;;;;27.09;34.73438;936.8736;;;;
2021/06/02 12:52:39;;;;;;;2.8;0.4;;;;;;;27.47;28.97363;936.8836;;;;
2021/06/02 12:55:04;;;;;;;0.6;0.3;;;;;;;27.4;31.61426;936.9175;;;;
2021/06/02 12:57:30;;;;;;;0.4;0.3;;;;;;;27.19;31.40918;936.9829;;;;
2021/06/02 12:59:54;;;;;;;0.4;0.3;;;;;;;27.44;30.62012;936.9485;;;;
2021/06/02 13:02:20;;;;;;;2.5;0.5;;;;;;;27.55;31.93262;937.0064;;;;
2021/06/02 13:04:44;;;;;;;0.5;0.3;;;;;;;27.6;31.2959;937.0201;;;;
2021/06/02 13:07:20;;;;;;;0.5;0.3;;;;;;;27.29;29.80371;936.9077;;;;
2021/06/02 13:09:45;;;;;;;2.1;0.7;;;;;;;26.89;31.62598;936.9277;;;;
2021/06/02 13:12:13;;;;;;;0.4;0.4;;;;;;;26.25;33.35547;936.9399;;;;
2021/06/02 13:14:38;;;;;;;0.8;0.6;;;;;;;25.94;34.16113;936.9807;;;;
2021/06/02 13:17:05;;;;;;;0.3;0.2;;;;;;;25.84;33.96387;937.026;;;;
2021/06/02 13:19:30;;;;;;;0.3;0.3;;;;;;;25.58;32.07715;937.0229;;;;
2021/06/02 13:21:55;;;;;;;1.4;0.4;;;;;;;25.48;33.23926;936.9473;;;;
2021/06/02 13:24:24;;;;;;;0.5;0.5;;;;;;;25.28;34.2041;936.943;;;;
2021/06/02 13:26:48;;;;;;;3.5;0.8;;;;;;;25.15;31.8457;936.9775;;;;
2021/06/02 13:29:14;;;;;;;1.1;0.5;;;;;;;25.08;33.31543;936.9437;;;;
2021/06/02 13:31:39;;;;;;;0.7;0.4;;;;;;;25.34;33.55957;937.0736;;;;
2021/06/02 13:34:04;;;;;;;9.3;0.6;;;;;;;25.43;35.05371;937.0947;;;;
2021/06/02 13:36:29;;;;;;;0.5;0.4;;;;;;;25.72;33.5752;937.0336;;;;
2021/06/02 13:38:54;;;;;;;0.6;0.4;;;;;;;25.77;34.21777;937.0291;;;;
2021/06/02 13:41:19;;;;;;;4.2;0.8;;;;;;;25.61;33.22559;937.1128;;;;
2021/06/02 13:43:47;;;;;;;0.3;0.3;;;;;;;25.63;31.79688;937.0955;;;;
2021/06/02 13:46:12;;;;;;;1;0.6;;;;;;;25.57;32.63086;937.0545;;;;
2021/06/02 13:48:40;;;;;;;0.7;0.5;;;;;;;25.58;32.20703;937.0668;;;;
2021/06/02 13:51:04;;;;;;;0.3;0.3;;;;;;;25.35;34.35059;937.0449;;;;
2021/06/02 13:53:30;;;;;;;4.8;0.7;;;;;;;25.24;34.04785;937.0444;;;;
2021/06/02 13:55:55;;;;;;;0.4;0.4;;;;;;;25.36;32.49805;937.0278;;;;
2021/06/02 13:58:20;;;;;;;1.6;0.6;;;;;;;25.59;34.13281;937.0891;;;;
2021/06/02 14:00:45;;;;;;;0.6;0.4;;;;;;;25.74;32.37207;937.0438;;;;
2021/06/02 14:03:12;;;;;;;0.4;0.4;;;;;;;25.81;34.11523;937.0403;;;;
2021/06/02 14:05:37;;;;;;;3.5;0.5;;;;;;;25.72;32.96191;937.0095;;;;
2021/06/02 14:08:03;;;;;;;0.3;0.3;;;;;;;25.62;32.96582;937.0373;;;;
2021/06/02 14:10:29;;;;;;;1.2;0.7;;;;;;;25.58;35.23242;937.0309;;;;
2021/06/02 14:13:00;;;;;;;0.1;0.1;;;;;;;25.68;35.32227;937.0413;;;;
2021/06/02 14:15:22;;;;;;;1.6;0.6;;;;;;;25.76;32.56348;937.077;;;;
2021/06/02 14:17:47;;;;;;;1.3;0.3;;;;;;;25.88;32.96094;937.0712;;;;
2021/06/02 14:20:14;;;;;;;0.8;0.4;;;;;;;25.93;33.36719;937.0653;;;;
2021/06/02 14:22:39;;;;;;;0.2;0.2;;;;;;;26.08;32.75195;937.1155;;;;
2021/06/02 14:25:04;;;;;;;0.7;0.3;;;;;;;26.24;31.94727;937.1163;;;;
2021/06/02 14:27:29;;;;;;;0.4;0.4;;;;;;;26.33;30.85254;937.128;;;;